Staunton, Illinois
Current Conditions -  °F | °C
As of 10:15 PM on Friday 31 Oct 2014 (Local Time) from K3LF Reporting Station
Scattered Clouds Scattered Clouds  
Wind Chill: 25°   Ceiling: Unl
Heat Index: 32°   Visibility: 10mi
Dew Point: 23°   Wind: 8mph
Humidity: 69%   Direction: 350°N
Pressure: 30.37"   Gusts: NA
Location:  39.01°N, 89.79°W
Report Text: K3LF 010315Z AUTO 35007KT 10SM SCT050 00/M05 A3037 RMK AO2 T00001050
Loading
Personal Weather Stations






























Interactive Weather Map
Tropical Storm Tracking
New forecast layout! Learn more

10-Day Weather Forecast

Advertisements
Track Severe Weather on mobile